Time;durP1;ratioP1;P1;durP2;ratioP2;P2;SDS_P1;SDS_P2;PMS_P1;PMS_P2;Temp;Humidity;BMP_temperature;BMP_pressure;BME280_temperature;BME280_humidity;BME280_pressure;Samples;Min_cycle;Max_cycle;Signal;HPM_P1;HPM_P2
2021/11/26 00:02:28;;;;;;;;;;;;;;;4.35;71.79;100044.66;1732118;83;20221;-64
2021/11/26 00:04:57;;;;;;;;;;;;;;;4.35;71.83;100036.52;1731901;83;20229;-64
2021/11/26 00:07:25;;;;;;;;;;;;;;;4.33;71.85;100039.41;1698700;83;20585;-64
2021/11/26 00:09:54;;;;;;;;;;;;;;;4.36;71.92;100033.64;1721420;83;20570;-63
2021/11/26 00:12:22;;;;;;;;;;;;;;;4.34;71.90;100028.89;1719501;83;20546;-63
2021/11/26 00:17:33;;;;;;;;;;;;;;;4.33;72.06;100016.34;1719168;83;20262;-63
2021/11/26 00:19:59;;;;;;;;;;;;;;;4.35;72.08;100022.45;1719253;83;20199;-62
2021/11/26 00:22:28;;;;;;;;;;;;;;;4.36;72.05;100030.08;1719203;83;20247;-63
2021/11/26 00:24:57;;;;;;;;;;;;;;;4.38;72.04;100030.25;1719462;83;20270;-62
2021/11/26 00:27:25;;;;;;;;;;;;;;;4.41;72.00;100027.72;1719515;83;20485;-63
2021/11/26 00:29:54;;;;;;;;;;;;;;;4.42;71.98;100023.48;1719437;83;20500;-63
2021/11/26 00:32:22;;;;;;;;;;;;;;;4.43;71.96;100014.83;1719404;83;20280;-62
2021/11/26 00:34:50;;;;;;;;;;;;;;;4.43;71.99;100016.19;1719150;83;20195;-62
2021/11/26 00:37:19;;;;;;;;;;;;;;;4.44;71.98;100011.11;1719179;83;20199;-64
2021/11/26 00:39:48;;;;;;;;;;;;;;;4.46;71.96;100003.65;1719397;83;20258;-63
2021/11/26 00:42:16;;;;;;;;;;;;;;;4.46;71.95;100007.21;1719271;83;20219;-64
2021/11/26 00:44:44;;;;;;;;;;;;;;;4.45;71.94;100001.45;1719260;83;20253;-63
2021/11/26 00:47:13;;;;;;;;;;;;;;;4.44;71.96;99992.13;1719242;82;20705;-63
2021/11/26 00:49:43;;;;;;;;;;;;;;;4.45;72.01;100000.59;1719250;83;20234;-63
2021/11/26 00:52:11;;;;;;;;;;;;;;;4.44;72.04;99987.54;1721644;83;20199;-62
2021/11/26 00:54:39;;;;;;;;;;;;;;;4.43;72.08;99987.71;1722037;83;20295;-63
2021/11/26 00:57:08;;;;;;;;;;;;;;;4.43;72.15;99985.00;1727367;83;20223;-64
2021/11/26 00:59:37;;;;;;;;;;;;;;;4.43;72.17;99987.20;1727436;83;20667;-63
2021/11/26 01:02:05;;;;;;;;;;;;;;;4.42;72.19;99977.87;1727407;82;20245;-63
2021/11/26 01:04:34;;;;;;;;;;;;;;;4.40;72.18;99967.70;1727460;83;20214;-63
2021/11/26 01:07:02;;;;;;;;;;;;;;;4.40;72.23;99963.63;1727372;82;20513;-64
2021/11/26 01:09:32;;;;;;;;;;;;;;;4.38;72.29;99966.52;1714230;82;20497;-64
2021/11/26 01:12:00;;;;;;;;;;;;;;;4.37;72.37;99946.34;1706548;84;20196;-63
2021/11/26 01:14:32;;;;;;;;;;;;;;;4.38;72.40;99954.82;1706465;84;20509;-64
2021/11/26 01:17:01;;;;;;;;;;;;;;;4.38;72.38;99950.75;1706377;83;20303;-64
2021/11/26 01:19:31;;;;;;;;;;;;;;;4.39;72.37;99957.88;1706599;83;20208;-65
2021/11/26 01:22:00;;;;;;;;;;;;;;;4.39;72.32;99947.02;1706481;84;20188;-66
2021/11/26 01:24:29;;;;;;;;;;;;;;;4.39;72.25;99943.80;1706526;84;20215;-64
2021/11/26 01:26:59;;;;;;;;;;;;;;;4.40;72.21;99937.87;1706479;84;20291;-63
2021/11/26 01:29:27;;;;;;;;;;;;;;;4.38;72.17;99943.47;1706501;83;20303;-62
2021/11/26 01:31:57;;;;;;;;;;;;;;;4.39;72.20;99942.95;1706480;84;20232;-63
2021/11/26 01:34:25;;;;;;;;;;;;;;;4.39;72.19;99932.11;1706822;83;20204;-65
2021/11/26 01:36:54;;;;;;;;;;;;;;;4.35;72.12;99928.03;1706726;83;20268;-64
2021/11/26 01:39:23;;;;;;;;;;;;;;;4.34;72.13;99926.34;1706448;84;20215;-64
2021/11/26 01:41:53;;;;;;;;;;;;;;;4.32;72.18;99931.94;1706720;83;20180;-64
2021/11/26 01:44:21;;;;;;;;;;;;;;;4.29;72.20;99933.63;1706745;84;20184;-64
2021/11/26 01:46:50;;;;;;;;;;;;;;;4.29;72.22;99926.85;1706462;83;20231;-64
2021/11/26 01:49:18;;;;;;;;;;;;;;;4.27;72.13;99940.23;1706515;83;20243;-65
2021/11/26 01:51:46;;;;;;;;;;;;;;;4.24;72.23;99925.66;1706513;84;20249;-64
2021/11/26 01:54:14;;;;;;;;;;;;;;;4.25;72.26;99939.05;1706451;84;20215;-63
2021/11/26 01:56:42;;;;;;;;;;;;;;;4.25;72.17;99933.63;1706477;83;20251;-64
2021/11/26 01:59:11;;;;;;;;;;;;;;;4.26;72.18;99927.70;1706539;84;20518;-64
2021/11/26 02:01:40;;;;;;;;;;;;;;;4.25;72.14;99920.07;1706802;83;20267;-64
2021/11/26 02:04:11;;;;;;;;;;;;;;;4.26;72.15;99924.48;1706688;84;20516;-63
2021/11/26 02:06:39;;;;;;;;;;;;;;;4.25;72.13;99928.20;1706495;84;20191;-64
2021/11/26 02:09:07;;;;;;;;;;;;;;;4.23;72.13;99925.33;1714571;83;20226;-62
2021/11/26 02:11:38;;;;;;;;;;;;;;;4.20;72.19;99919.73;1727485;83;20286;-63
2021/11/26 02:14:07;;;;;;;;;;;;;;;4.17;72.24;99924.64;1727686;83;20629;-62
2021/11/26 02:16:46;;;;;;;;;;;;;;;4.09;72.36;99926.84;1727790;83;20292;-61
2021/11/26 02:19:14;;;;;;;;;;;;;;;4.04;72.53;99921.92;1727294;83;20211;-63
2021/11/26 02:21:44;;;;;;;;;;;;;;;4.02;72.68;99916.33;1727399;83;20194;-64
2021/11/26 02:24:14;;;;;;;;;;;;;;;3.97;72.74;99915.47;1727470;83;20229;-63
2021/11/26 02:26:43;;;;;;;;;;;;;;;3.94;72.86;99918.52;1727324;82;20556;-64
2021/11/26 02:29:12;;;;;;;;;;;;;;;3.95;72.90;99924.78;1727615;83;20275;-63
2021/11/26 02:31:41;;;;;;;;;;;;;;;3.94;72.91;99913.09;1727449;83;20576;-63
2021/11/26 02:34:10;;;;;;;;;;;;;;;3.93;72.93;99908.69;1727450;82;20243;-64
2021/11/26 02:36:39;;;;;;;;;;;;;;;3.93;72.95;99912.76;1727384;83;20223;-64
2021/11/26 02:39:10;;;;;;;;;;;;;;;3.89;72.97;99910.52;1727690;83;20649;-63
2021/11/26 02:41:41;;;;;;;;;;;;;;;3.87;72.98;99913.39;1727527;83;20174;-64
2021/11/26 02:44:10;;;;;;;;;;;;;;;3.88;73.00;99907.47;1727630;83;20544;-62
2021/11/26 02:46:40;;;;;;;;;;;;;;;3.89;72.95;99904.59;1727416;83;20234;-66
2021/11/26 02:49:08;;;;;;;;;;;;;;;3.88;72.94;99908.81;1727452;83;20183;-63
2021/11/26 02:51:37;;;;;;;;;;;;;;;3.85;72.93;99908.64;1727610;83;20614;-63
2021/11/26 02:54:05;;;;;;;;;;;;;;;3.80;72.97;99905.08;1727875;83;20497;-62
2021/11/26 02:56:33;;;;;;;;;;;;;;;3.76;73.07;99916.42;1727586;83;20222;-62
2021/11/26 02:59:02;;;;;;;;;;;;;;;3.76;73.12;99913.70;1727324;83;20222;-63
2021/11/26 03:01:31;;;;;;;;;;;;;;;3.79;73.12;99907.95;1727404;83;20286;-63
2021/11/26 03:04:00;;;;;;;;;;;;;;;3.79;73.05;99910.16;1727682;83;20206;-64
2021/11/26 03:06:29;;;;;;;;;;;;;;;3.71;73.05;99907.43;1727376;82;20294;-63
2021/11/26 03:08:59;;;;;;;;;;;;;;;3.66;73.22;99918.42;1728580;82;20182;-63
2021/11/26 03:11:28;;;;;;;;;;;;;;;3.57;73.41;99906.72;1728897;83;20250;-62
2021/11/26 03:13:56;;;;;;;;;;;;;;;3.57;73.53;99913.49;1727362;83;20283;-63
2021/11/26 03:16:24;;;;;;;;;;;;;;;3.57;73.53;99904.52;1727404;83;20251;-63
2021/11/26 03:18:53;;;;;;;;;;;;;;;3.58;73.59;99903.50;1727332;83;20178;-63
2021/11/26 03:21:22;;;;;;;;;;;;;;;3.57;73.55;99894.53;1727577;83;20497;-63
2021/11/26 03:23:50;;;;;;;;;;;;;;;3.52;73.66;99891.97;1727330;83;20242;-62
2021/11/26 03:26:20;;;;;;;;;;;;;;;3.49;73.76;99882.32;1727425;82;20562;-63
2021/11/26 03:28:48;;;;;;;;;;;;;;;3.46;73.85;99874.02;1727353;83;20246;-63
2021/11/26 03:31:17;;;;;;;;;;;;;;;3.49;73.84;99879.11;1727685;83;20191;-63
2021/11/26 03:33:45;;;;;;;;;;;;;;;3.47;73.83;99897.38;1727668;83;20485;-63
2021/11/26 03:36:14;;;;;;;;;;;;;;;3.45;73.91;99905.33;1727329;83;20635;-63
2021/11/26 03:38:42;;;;;;;;;;;;;;;3.45;73.90;99891.28;1727474;83;20525;-62
2021/11/26 03:41:11;;;;;;;;;;;;;;;3.48;73.86;99898.23;1727846;82;20473;-63
2021/11/26 03:43:41;;;;;;;;;;;;;;;3.48;73.81;99900.94;1727500;82;20548;-64
2021/11/26 03:46:11;;;;;;;;;;;;;;;3.47;73.79;99896.03;1727492;83;20250;-63
2021/11/26 03:48:40;;;;;;;;;;;;;;;3.43;73.82;99906.84;1727669;83;20533;-62
2021/11/26 03:51:08;;;;;;;;;;;;;;;3.40;73.86;99907.68;1727676;83;20195;-63
2021/11/26 03:53:37;;;;;;;;;;;;;;;3.37;73.98;99902.09;1727461;83;20254;-63
2021/11/26 03:56:05;;;;;;;;;;;;;;;3.37;74.04;99902.59;1727549;82;20182;-63
2021/11/26 03:58:33;;;;;;;;;;;;;;;3.37;74.04;99899.88;1727449;83;20194;-65
2021/11/26 04:01:02;;;;;;;;;;;;;;;3.36;74.03;99896.84;1727436;83;20199;-63
2021/11/26 04:03:31;;;;;;;;;;;;;;;3.37;74.05;99887.19;1727455;83;20503;-61
2021/11/26 04:05:59;;;;;;;;;;;;;;;3.36;74.02;99886.00;1727361;83;20247;-62
2021/11/26 04:08:27;;;;;;;;;;;;;;;3.30;74.05;99882.09;1727434;83;20586;-65
2021/11/26 04:10:57;;;;;;;;;;;;;;;3.28;74.20;99884.63;1710816;81;20184;-63
2021/11/26 04:13:26;;;;;;;;;;;;;;;3.24;74.29;99889.48;1706535;84;20235;-63
2021/11/26 04:16:01;;;;;;;;;;;;;;;3.19;74.42;99887.27;1708548;84;20535;-62
2021/11/26 04:18:24;;;;;;;;;;;;;;;3.16;74.48;99879.98;1710617;84;20191;-63
2021/11/26 04:20:52;;;;;;;;;;;;;;;3.15;74.59;99885.05;1711309;84;20196;-64
2021/11/26 04:23:23;;;;;;;;;;;;;;;3.18;74.58;99882.86;1716960;84;20220;-63
2021/11/26 04:25:51;;;;;;;;;;;;;;;3.18;74.58;99876.09;1712263;82;20187;-61
2021/11/26 04:28:19;;;;;;;;;;;;;;;3.16;74.62;99874.56;1711187;83;20187;-63
2021/11/26 04:30:48;;;;;;;;;;;;;;;3.11;74.67;99875.56;1710885;84;20227;-62
2021/11/26 04:33:16;;;;;;;;;;;;;;;3.06;74.80;99872.49;1711287;84;20227;-62
2021/11/26 04:35:48;;;;;;;;;;;;;;;2.98;75.02;99888.69;1711041;83;20211;-63
2021/11/26 04:38:17;;;;;;;;;;;;;;;2.96;75.17;99890.71;1711451;83;20298;-62
2021/11/26 04:40:46;;;;;;;;;;;;;;;2.96;75.27;99883.95;1711194;84;20567;-63
2021/11/26 04:43:15;;;;;;;;;;;;;;;2.96;75.37;99883.95;1711048;84;20183;-62
2021/11/26 04:45:44;;;;;;;;;;;;;;;2.96;75.42;99878.53;1711009;84;20243;-63
2021/11/26 04:48:12;;;;;;;;;;;;;;;2.97;75.49;99879.73;1711053;82;20220;-63
2021/11/26 04:50:40;;;;;;;;;;;;;;;3.00;75.52;99873.14;1711024;83;20211;-63
2021/11/26 04:53:08;;;;;;;;;;;;;;;2.99;75.47;99870.09;1711384;83;20222;-65
2021/11/26 04:55:36;;;;;;;;;;;;;;;2.98;75.53;99868.39;1711073;84;20208;-62
2021/11/26 04:58:05;;;;;;;;;;;;;;;2.99;75.57;99869.59;1711024;83;20196;-62
2021/11/26 05:00:35;;;;;;;;;;;;;;;2.98;75.55;99869.75;1713245;83;20223;-62
2021/11/26 05:03:04;;;;;;;;;;;;;;;2.97;75.61;99864.00;1710600;84;20302;-63
2021/11/26 05:05:33;;;;;;;;;;;;;;;2.98;75.62;99874.66;1711016;84;20227;-63
2021/11/26 05:08:02;;;;;;;;;;;;;;;3.00;75.66;99871.79;1711009;82;20239;-63
2021/11/26 05:10:31;;;;;;;;;;;;;;;3.02;75.65;99873.83;1715524;83;20195;-63
2021/11/26 05:13:02;;;;;;;;;;;;;;;3.01;75.64;99881.60;1719099;83;20218;-63
2021/11/26 05:15:32;;;;;;;;;;;;;;;2.99;75.69;99889.88;1723754;83;20202;-62
2021/11/26 05:18:02;;;;;;;;;;;;;;;3.00;75.75;99886.67;1727528;83;20258;-63
2021/11/26 05:20:32;;;;;;;;;;;;;;;3.02;75.77;99876.53;1727400;83;20187;-62
2021/11/26 05:23:01;;;;;;;;;;;;;;;3.04;75.71;99878.57;1727681;83;20558;-62
2021/11/26 05:25:31;;;;;;;;;;;;;;;3.04;75.62;99875.36;1727475;83;20187;-63
2021/11/26 05:28:00;;;;;;;;;;;;;;;3.06;75.66;99877.41;1727363;83;20211;-62
2021/11/26 05:30:29;;;;;;;;;;;;;;;3.05;75.55;99869.44;1727388;83;20273;-63
2021/11/26 05:33:00;;;;;;;;;;;;;;;3.02;75.69;99867.06;1727586;83;20242;-63
2021/11/26 05:35:29;;;;;;;;;;;;;;;3.00;75.78;99855.05;1727553;83;20187;-62
2021/11/26 05:37:57;;;;;;;;;;;;;;;3.01;75.79;99859.45;1727387;83;20222;-62
2021/11/26 05:40:26;;;;;;;;;;;;;;;3.02;75.76;99857.59;1727572;83;20214;-63
2021/11/26 05:42:55;;;;;;;;;;;;;;;3.01;75.74;99858.09;1727504;83;20592;-62
2021/11/26 05:45:24;;;;;;;;;;;;;;;3.01;75.81;99864.02;1727306;83;20237;-63
2021/11/26 05:47:52;;;;;;;;;;;;;;;3.02;75.83;99860.30;1727612;83;20497;-63
2021/11/26 05:50:21;;;;;;;;;;;;;;;3.02;75.78;99864.36;1727406;83;20194;-63
2021/11/26 05:52:49;;;;;;;;;;;;;;;2.98;75.89;99872.45;1727533;83;20552;-63
2021/11/26 05:55:20;;;;;;;;;;;;;;;2.98;76.00;99864.34;1727590;83;20230;-62
2021/11/26 05:57:49;;;;;;;;;;;;;;;2.97;76.05;99864.00;1727288;83;20227;-63
2021/11/26 06:00:18;;;;;;;;;;;;;;;2.94;76.12;99866.52;1727281;83;20234;-63
2021/11/26 06:02:47;;;;;;;;;;;;;;;2.93;76.13;99873.45;1727302;83;20507;-64
2021/11/26 06:05:15;;;;;;;;;;;;;;;2.94;76.16;99872.44;1727435;83;20179;-62
2021/11/26 06:07:44;;;;;;;;;;;;;;;2.95;76.18;99866.86;1727498;83;20237;-64
2021/11/26 06:10:14;;;;;;;;;;;;;;;2.95;76.08;99862.80;1727323;81;20223;-64
2021/11/26 06:12:43;;;;;;;;;;;;;;;2.93;76.17;99854.51;1727527;83;20206;-62
2021/11/26 06:15:13;;;;;;;;;;;;;;;2.94;76.20;99858.91;1727499;83;20178;-63
2021/11/26 06:17:41;;;;;;;;;;;;;;;2.97;76.22;99857.23;1727304;83;20191;-62
2021/11/26 06:20:10;;;;;;;;;;;;;;;2.98;76.16;99857.06;1727618;83;20191;-64
2021/11/26 06:22:44;;;;;;;;;;;;;;;2.97;76.08;99853.17;1727279;83;20254;-62
2021/11/26 06:25:11;;;;;;;;;;;;;;;2.99;76.07;99863.33;1727512;82;20484;-64
2021/11/26 06:27:39;;;;;;;;;;;;;;;3.01;76.03;99857.25;1727357;83;20190;-63
2021/11/26 06:30:11;;;;;;;;;;;;;;;3.04;76.02;99865.04;1727337;83;20276;-63
2021/11/26 06:32:42;;;;;;;;;;;;;;;3.05;75.97;99868.94;1727385;83;20215;-63
2021/11/26 06:35:12;;;;;;;;;;;;;;;3.08;75.92;99883.50;1727347;83;20190;-63
2021/11/26 06:37:40;;;;;;;;;;;;;;;3.09;75.83;99880.29;1727331;83;20191;-64
2021/11/26 06:40:10;;;;;;;;;;;;;;;3.10;75.66;99878.77;1727593;83;20246;-64
2021/11/26 06:42:38;;;;;;;;;;;;;;;3.07;75.62;99875.55;1727621;83;20234;-63
2021/11/26 06:45:08;;;;;;;;;;;;;;;3.05;75.72;99875.70;1727560;83;20504;-64
2021/11/26 06:47:36;;;;;;;;;;;;;;;3.08;75.74;99877.23;1727520;83;20489;-63
2021/11/26 06:50:07;;;;;;;;;;;;;;;3.10;75.63;99873.86;1727325;83;20187;-64
2021/11/26 06:52:37;;;;;;;;;;;;;;;3.09;75.66;99877.58;1727497;83;20195;-63
2021/11/26 06:55:07;;;;;;;;;;;;;;;3.12;75.70;99876.75;1727472;83;20290;-63
2021/11/26 06:57:36;;;;;;;;;;;;;;;3.16;75.62;99876.77;1727354;83;20210;-62
2021/11/26 07:00:08;;;;;;;;;;;;;;;3.18;75.47;99876.09;1727422;83;20496;-64
2021/11/26 07:02:36;;;;;;;;;;;;;;;3.15;75.45;99880.98;1694888;83;20275;-64
2021/11/26 07:05:06;;;;;;;;;;;;;;;3.15;75.52;99884.55;1727281;83;20191;-63
2021/11/26 07:07:35;;;;;;;;;;;;;;;3.18;75.52;99873.39;1727320;83;20509;-63
2021/11/26 07:10:05;;;;;;;;;;;;;;;3.20;75.39;99877.28;1725207;81;20186;-64
2021/11/26 07:12:34;;;;;;;;;;;;;;;3.20;75.40;99873.22;1709840;84;20553;-63
2021/11/26 07:15:04;;;;;;;;;;;;;;;3.18;75.43;99870.68;1710859;84;20517;-63
2021/11/26 07:17:33;;;;;;;;;;;;;;;3.19;75.45;99861.55;1711230;83;20481;-64
2021/11/26 07:20:03;;;;;;;;;;;;;;;3.22;75.44;99863.59;1711130;82;20509;-64
2021/11/26 07:22:31;;;;;;;;;;;;;;;3.26;75.38;99859.06;1710893;84;20255;-64
2021/11/26 07:25:00;;;;;;;;;;;;;;;3.29;75.34;99853.33;1710943;84;20235;-64
2021/11/26 07:27:28;;;;;;;;;;;;;;;3.35;75.22;99855.87;1711111;83;20609;-63
2021/11/26 07:29:57;;;;;;;;;;;;;;;3.39;75.15;99851.83;1710906;84;20200;-64
2021/11/26 07:32:25;;;;;;;;;;;;;;;3.48;75.11;99854.39;1710885;84;20195;-63
2021/11/26 07:34:53;;;;;;;;;;;;;;;3.65;75.04;99857.13;1710872;84;20557;-63
2021/11/26 07:37:21;;;;;;;;;;;;;;;3.89;74.71;99853.09;1711285;84;20188;-63
2021/11/26 07:39:51;;;;;;;;;;;;;;;4.16;74.18;99856.52;1710871;83;20310;-64
2021/11/26 07:42:20;;;;;;;;;;;;;;;4.47;73.03;99858.86;1710898;84;20529;-63
2021/11/26 07:44:48;;;;;;;;;;;;;;;4.75;72.06;99864.27;1710852;82;20227;-64
2021/11/26 07:47:18;;;;;;;;;;;;;;;5.02;71.35;99864.35;1710895;84;20207;-63
2021/11/26 07:49:51;;;;;;;;;;;;;;;5.32;69.97;99857.30;1710888;84;20249;-64
2021/11/26 07:52:19;;;;;;;;;;;;;;;5.53;68.60;99858.03;1710740;82;20558;-63
2021/11/26 07:54:48;;;;;;;;;;;;;;;5.72;68.07;99852.65;1710880;84;20183;-63
2021/11/26 07:57:16;;;;;;;;;;;;;;;5.89;67.08;99840.70;1711139;84;20203;-64
2021/11/26 07:59:45;;;;;;;;;;;;;;;6.05;66.71;99850.61;1710932;84;20199;-63
2021/11/26 08:02:15;;;;;;;;;;;;;;;6.23;65.90;99847.56;1710897;84;20179;-64
2021/11/26 08:04:44;;;;;;;;;;;;;;;6.37;65.35;99854.92;1711142;84;20485;-64
2021/11/26 08:07:13;;;;;;;;;;;;;;;6.46;64.66;99853.81;1710860;84;20518;-65
2021/11/26 08:09:43;;;;;;;;;;;;;;;6.53;64.52;99859.39;1711058;84;20188;-65
2021/11/26 08:12:13;;;;;;;;;;;;;;;6.52;63.59;99857.19;1710961;83;20498;-64
2021/11/26 08:14:43;;;;;;;;;;;;;;;6.40;63.67;99866.80;1710874;84;20223;-65
2021/11/26 08:17:13;;;;;;;;;;;;;;;6.26;63.90;99867.60;1710914;84;20187;-65
2021/11/26 08:19:43;;;;;;;;;;;;;;;6.15;64.30;99867.52;1710936;84;20204;-63
2021/11/26 08:22:17;;;;;;;;;;;;;;;6.06;64.59;99867.77;1710863;84;20175;-64
2021/11/26 08:24:44;;;;;;;;;;;;;;;5.95;64.90;99872.59;1710879;83;20176;-64
2021/11/26 08:27:13;;;;;;;;;;;;;;;5.84;65.09;99872.11;1711239;84;20172;-63
2021/11/26 08:29:43;;;;;;;;;;;;;;;5.73;65.37;99874.21;1716770;84;20215;-63
2021/11/26 08:32:11;;;;;;;;;;;;;;;5.62;65.70;99866.98;1716589;83;20218;-64
2021/11/26 08:34:40;;;;;;;;;;;;;;;5.49;66.07;99859.92;1710981;84;20187;-67
2021/11/26 08:37:09;;;;;;;;;;;;;;;5.44;66.46;99858.25;1711229;84;20231;-64
2021/11/26 08:39:39;;;;;;;;;;;;;;;5.45;66.72;99858.59;1710882;83;20243;-64
2021/11/26 08:42:09;;;;;;;;;;;;;;;5.47;66.72;99845.67;1710902;84;20533;-64
2021/11/26 08:44:39;;;;;;;;;;;;;;;5.46;66.82;99857.56;1710942;83;20227;-65
2021/11/26 08:47:08;;;;;;;;;;;;;;;5.46;66.87;99854.84;1710919;84;20191;-63
2021/11/26 08:49:36;;;;;;;;;;;;;;;5.40;66.90;99848.26;1711026;84;20212;-63
2021/11/26 08:52:05;;;;;;;;;;;;;;;5.35;67.08;99831.13;1710980;83;20219;-63
2021/11/26 08:54:35;;;;;;;;;;;;;;;5.36;67.19;99819.75;1710938;84;20188;-64
2021/11/26 08:57:05;;;;;;;;;;;;;;;5.36;67.34;99819.75;1711000;83;20195;-62
2021/11/26 08:59:40;;;;;;;;;;;;;;;5.40;67.47;99825.16;1701804;82;20276;-65
2021/11/26 09:02:09;;;;;;;;;;;;;;;5.47;67.48;99820.70;1707384;84;20247;-65
2021/11/26 09:04:39;;;;;;;;;;;;;;;5.45;67.16;99807.81;1682143;84;20317;-66
2021/11/26 09:07:08;;;;;;;;;;;;;;;5.47;67.19;99800.84;1692360;84;20203;-65
2021/11/26 09:09:37;;;;;;;;;;;;;;;5.52;67.23;99792.48;1710640;83;20230;-65
2021/11/26 09:12:07;;;;;;;;;;;;;;;5.52;67.02;99793.84;1710943;83;20396;-66
2021/11/26 09:14:36;;;;;;;;;;;;;;;5.49;66.91;99797.44;1710965;84;20231;-65
2021/11/26 09:17:06;;;;;;;;;;;;;;;5.46;67.01;99793.20;1684032;83;20149;-66
2021/11/26 09:19:36;;;;;;;;;;;;;;;5.47;67.13;99789.98;1707695;84;20219;-65
2021/11/26 09:22:05;;;;;;;;;;;;;;;5.53;67.25;99790.62;1710739;83;20587;-65
2021/11/26 09:24:34;;;;;;;;;;;;;;;5.60;67.07;99786.15;1710862;83;20192;-65
2021/11/26 09:27:03;;;;;;;;;;;;;;;5.62;66.93;99778.14;1710986;84;20290;-64
2021/11/26 09:29:32;;;;;;;;;;;;;;;5.64;66.86;99778.81;1710871;83;20199;-65
2021/11/26 09:32:01;;;;;;;;;;;;;;;5.64;66.62;99773.37;1709192;83;20187;-63
2021/11/26 09:34:30;;;;;;;;;;;;;;;5.66;66.63;99773.20;1682723;85;20540;-64
2021/11/26 09:36:58;;;;;;;;;;;;;;;5.69;66.69;99765.52;1682562;84;20222;-63
2021/11/26 09:39:29;;;;;;;;;;;;;;;5.74;66.64;99773.13;1682490;85;20210;-63
2021/11/26 09:41:58;;;;;;;;;;;;;;;5.76;66.78;99762.08;1682550;85;20162;-63
2021/11/26 09:44:31;;;;;;;;;;;;;;;5.80;67.10;99757.45;1682664;84;20216;-62
2021/11/26 09:46:57;;;;;;;;;;;;;;;5.84;66.63;99747.91;1682459;84;20468;-62
2021/11/26 09:49:26;;;;;;;;;;;;;;;5.87;66.70;99742.13;1682531;84;20183;-63
2021/11/26 09:51:54;;;;;;;;;;;;;;;5.87;66.39;99731.26;1682498;85;20194;-65
2021/11/26 09:54:23;;;;;;;;;;;;;;;5.83;66.20;99736.70;1682679;84;20179;-63
2021/11/26 09:56:52;;;;;;;;;;;;;;;5.81;66.16;99727.88;1682622;85;20191;-64
2021/11/26 09:59:22;;;;;;;;;;;;;;;5.83;66.23;99717.67;1682407;84;20175;-65
2021/11/26 10:02:09;;;;;;;;;;;;;;;5.88;66.14;99699.48;1682725;85;20150;-65
2021/11/26 10:05:03;;;;;;;;;;;;;;;5.93;66.12;99692.48;1682625;84;20249;-65
2021/11/26 10:07:47;;;;;;;;;;;;;;;5.99;65.81;99693.63;1699672;84;20486;-65
2021/11/26 10:10:25;;;;;;;;;;;;;;;6.03;65.58;99693.06;1709588;83;20221;-64
2021/11/26 10:13:02;;;;;;;;;;;;;;;6.08;65.68;99693.02;1709376;83;20287;-66
2021/11/26 10:15:41;;;;;;;;;;;;;;;6.11;65.57;99683.98;1709405;83;20156;-64
2021/11/26 10:18:16;;;;;;;;;;;;;;;6.14;65.37;99686.32;1709388;84;20157;-64
2021/11/26 10:21:07;;;;;;;;;;;;;;;6.14;65.06;99684.12;1710806;84;20208;-62
2021/11/26 10:23:43;;;;;;;;;;;;;;;6.12;65.20;99682.94;1710925;83;20188;-64
2021/11/26 10:26:19;;;;;;;;;;;;;;;6.13;65.28;99681.07;1711373;83;20212;-64
2021/11/26 10:28:51;;;;;;;;;;;;;;;6.17;65.37;99678.30;1710699;82;20251;-63
2021/11/26 10:31:31;;;;;;;;;;;;;;;6.17;65.31;99666.06;1716399;83;20312;-63
2021/11/26 10:34:03;;;;;;;;;;;;;;;6.17;65.35;99666.06;1713900;83;20255;-64
2021/11/26 10:36:44;;;;;;;;;;;;;;;6.16;65.29;99660.30;1686617;84;20169;-63
2021/11/26 10:39:20;;;;;;;;;;;;;;;6.16;65.44;99677.97;1686465;85;20218;-63
2021/11/26 10:41:53;;;;;;;;;;;;;;;6.16;65.44;99672.53;1686622;85;20225;-64
2021/11/26 10:44:27;;;;;;;;;;;;;;;6.15;65.55;99681.73;1686641;85;20172;-63
2021/11/26 11:01:04;;;;;;;;;;;;;;;6.30;65.29;99663.53;1696017;84;20231;-63
2021/11/26 11:03:33;;;;;;;;;;;;;;;6.29;65.31;99659.13;1711133;84;20188;-64
2021/11/26 11:06:02;;;;;;;;;;;;;;;6.32;65.36;99662.30;1710668;83;20215;-64
2021/11/26 11:08:33;;;;;;;;;;;;;;;6.34;65.25;99653.95;1682754;84;20493;-61
2021/11/26 11:11:04;;;;;;;;;;;;;;;6.38;65.59;99646.27;1682309;84;20202;-64
2021/11/26 11:13:34;;;;;;;;;;;;;;;6.43;65.33;99638.38;1699220;84;20172;-65
2021/11/26 11:16:09;;;;;;;;;;;;;;;6.45;65.21;99638.51;1688102;84;20185;-66
2021/11/26 11:18:39;;;;;;;;;;;;;;;6.48;64.99;99635.92;1661948;83;20216;-64
2021/11/26 11:21:09;;;;;;;;;;;;;;;6.51;65.09;99642.38;1675576;85;20163;-66
2021/11/26 11:23:37;;;;;;;;;;;;;;;6.55;65.03;99643.17;1664276;85;20211;-63
2021/11/26 11:26:07;;;;;;;;;;;;;;;6.60;64.69;99634.44;1662863;85;20226;-64
2021/11/26 11:28:36;;;;;;;;;;;;;;;6.63;64.50;99638.98;1645264;86;20220;-65
2021/11/26 11:31:07;;;;;;;;;;;;;;;6.66;64.49;99644.04;1670084;85;20186;-64
2021/11/26 11:33:35;;;;;;;;;;;;;;;6.68;64.50;99646.57;1670054;84;20194;-64
2021/11/26 11:36:07;;;;;;;;;;;;;;;6.73;64.30;99641.91;1672905;83;20186;-64
2021/11/26 11:38:35;;;;;;;;;;;;;;;6.73;64.38;99637.83;1729813;83;20316;-65
2021/11/26 11:41:06;;;;;;;;;;;;;;;6.76;64.40;99633.36;1725552;83;20467;-65
2021/11/26 11:43:41;;;;;;;;;;;;;;;6.77;64.33;99636.41;1725446;82;20157;-64
2021/11/26 11:46:12;;;;;;;;;;;;;;;6.78;64.33;99629.93;1722658;83;20153;-66
2021/11/26 11:48:47;;;;;;;;;;;;;;;6.77;64.36;99620.92;1722884;82;20158;-63
2021/11/26 11:51:21;;;;;;;;;;;;;;;6.81;64.35;99621.38;1722635;82;20197;-65
2021/11/26 11:54:02;;;;;;;;;;;;;;;6.82;64.31;99625.78;1722625;83;20149;-64
2021/11/26 11:56:40;;;;;;;;;;;;;;;6.83;64.30;99631.04;1723022;83;20146;-64
2021/11/26 11:59:09;;;;;;;;;;;;;;;6.84;64.36;99631.36;1722472;83;20182;-64
2021/11/26 12:01:41;;;;;;;;;;;;;;;6.87;64.10;99632.34;1722807;83;20150;-61
2021/11/26 12:04:16;;;;;;;;;;;;;;;6.89;64.08;99625.34;1637435;86;20534;-64
2021/11/26 12:06:48;;;;;;;;;;;;;;;6.92;64.16;99624.95;1639950;86;20211;-64
2021/11/26 12:09:23;;;;;;;;;;;;;;;6.93;64.12;99607.58;1637077;87;20184;-63
2021/11/26 12:12:10;;;;;;;;;;;;;;;6.94;64.16;99595.13;1639773;86;20156;-64
2021/11/26 12:14:48;;;;;;;;;;;;;;;6.95;64.17;99592.73;1639753;87;20185;-63
2021/11/26 12:17:35;;;;;;;;;;;;;;;6.96;64.20;99582.68;1639398;86;20252;-65
2021/11/26 12:20:08;;;;;;;;;;;;;;;6.96;64.31;99585.41;1639768;87;20231;-63
2021/11/26 12:22:42;;;;;;;;;;;;;;;6.98;64.37;99581.97;1691869;83;20185;-64
2021/11/26 12:25:26;;;;;;;;;;;;;;;6.99;64.40;99581.77;1725716;82;20141;-65
2021/11/26 12:27:58;;;;;;;;;;;;;;;7.02;64.46;99581.91;1725174;82;20189;-64
2021/11/26 12:30:27;;;;;;;;;;;;;;;7.01;64.46;99584.30;1725885;83;20209;-66
2021/11/26 12:32:56;;;;;;;;;;;;;;;7.02;64.50;99589.23;1722904;82;20256;-62
2021/11/26 12:35:26;;;;;;;;;;;;;;;7.01;64.59;99577.49;1723111;82;20495;-65
2021/11/26 12:37:56;;;;;;;;;;;;;;;7.02;64.63;99576.98;1722797;83;20174;-63
2021/11/26 12:40:25;;;;;;;;;;;;;;;7.01;64.71;99574.77;1722840;82;20471;-64
2021/11/26 12:42:59;;;;;;;;;;;;;;;7.05;64.75;99565.17;1722753;83;20221;-63
2021/11/26 12:45:31;;;;;;;;;;;;;;;7.07;64.75;99568.55;1722840;82;20157;-64
2021/11/26 12:48:10;;;;;;;;;;;;;;;7.09;64.67;99574.64;1709599;82;20154;-64
2021/11/26 12:53:26;;;;;;;;;;;;;;;7.15;64.49;99563.48;1722737;83;20197;-64
2021/11/26 12:56:06;;;;;;;;;;;;;;;7.17;64.37;99561.43;1722749;83;20229;-64
2021/11/26 12:58:39;;;;;;;;;;;;;;;7.20;64.30;99560.52;1722861;82;20187;-64
2021/11/26 13:01:09;;;;;;;;;;;;;;;7.23;64.32;99557.40;1723098;82;20186;-72
2021/11/26 13:03:47;;;;;;;;;;;;;;;7.24;64.21;99552.27;1722716;82;20466;-64
2021/11/26 13:06:23;;;;;;;;;;;;;;;7.26;64.13;99558.89;1722867;82;20181;-64
2021/11/26 13:09:02;;;;;;;;;;;;;;;7.26;64.06;99552.92;1722816;82;20475;-65
2021/11/26 13:11:46;;;;;;;;;;;;;;;7.29;64.11;99552.52;1721439;82;20197;-63
2021/11/26 13:14:17;;;;;;;;;;;;;;;7.32;64.05;99549.92;1720895;82;20189;-64
2021/11/26 13:16:47;;;;;;;;;;;;;;;7.34;64.10;99545.13;1722788;82;20146;-63
2021/11/26 13:19:21;;;;;;;;;;;;;;;7.34;64.10;99540.19;1677060;83;20515;-62
2021/11/26 13:21:58;;;;;;;;;;;;;;;7.34;64.16;99532.86;1722763;82;20505;-64
2021/11/26 13:24:27;;;;;;;;;;;;;;;7.34;64.22;99532.86;1722880;83;20245;-64
2021/11/26 13:27:00;;;;;;;;;;;;;;;7.34;64.28;99528.77;1722676;83;20261;-63
2021/11/26 13:29:30;;;;;;;;;;;;;;;7.35;64.34;99529.61;1722611;82;20471;-63
2021/11/26 13:32:00;;;;;;;;;;;;;;;7.34;64.43;99519.75;1722905;82;20174;-63